createdAt,value
2024-05-09T00:54:48.863Z,9.6
2024-05-09T01:04:51.531Z,9.3
2024-05-09T01:55:03.483Z,8.9
2024-05-09T02:05:03.252Z,8.5
2024-05-09T02:15:05.338Z,8.3
2024-05-09T02:35:08.949Z,7.7
2024-05-09T02:45:11.327Z,7.5
2024-05-09T03:15:18.691Z,7.2
2024-05-09T03:35:22.964Z,7
2024-05-09T03:45:25.166Z,6.7
2024-05-09T03:55:27.341Z,6.6
2024-05-09T04:05:29.963Z,6.3
2024-05-09T04:15:32.534Z,6.4
2024-05-09T04:35:36.720Z,6.5
2024-05-09T04:55:41.161Z,6.7
2024-05-09T05:35:48.961Z,8.5
2024-05-09T07:16:12.167Z,12
2024-05-09T07:26:14.100Z,12.4
2024-05-09T07:36:16.091Z,13
2024-05-09T07:46:45.689Z,13.5
2024-05-09T07:56:21.895Z,13.8
2024-05-09T08:06:22.239Z,14.4
2024-05-09T08:16:24.017Z,14.8
2024-05-09T08:26:26.433Z,15.2
2024-05-09T08:36:29.032Z,15.7
2024-05-09T08:46:31.437Z,15.9
2024-05-09T09:06:35.656Z,17
2024-05-09T09:16:37.991Z,17.6
2024-05-09T09:26:39.678Z,18
2024-05-09T09:36:42.310Z,17.6
2024-05-09T09:46:44.340Z,18.4
2024-05-09T09:56:46.642Z,17.3
2024-05-09T10:06:49.234Z,18.2
2024-05-09T10:16:51.223Z,18.5
2024-05-09T10:26:53.669Z,18.2
2024-05-09T10:36:55.996Z,18.3
2024-05-09T10:46:58.485Z,18.3
2024-05-09T10:57:01.080Z,18.3
2024-05-09T11:07:05.241Z,18.7
2024-05-09T11:17:05.403Z,19.7
2024-05-09T11:27:07.921Z,18.7
2024-05-09T11:37:10.057Z,18.8
2024-05-09T11:57:14.870Z,20
2024-05-09T12:07:17.353Z,19.8
2024-05-09T12:17:20.034Z,19.5
2024-05-09T12:27:22.053Z,21.1
2024-05-09T12:37:24.605Z,20.2
2024-05-09T12:47:26.553Z,20.2
2024-05-09T13:07:31.708Z,20.4
2024-05-09T13:17:33.486Z,20
2024-05-09T13:27:35.502Z,20.6
2024-05-09T13:37:38.044Z,20
2024-05-09T13:47:40.657Z,20.2
2024-05-09T13:57:42.554Z,20.6
2024-05-09T14:07:44.628Z,20.3
2024-05-09T14:17:47.253Z,20.5
2024-05-09T14:27:49.458Z,20.4
2024-05-09T14:47:54.505Z,19.9
2024-05-09T14:57:56.127Z,20.5
2024-05-09T15:07:58.293Z,20
2024-05-09T15:18:01.037Z,20
2024-05-09T15:28:02.983Z,20.2
2024-05-09T15:38:05.058Z,20.6
2024-05-09T15:48:07.214Z,20.4
2024-05-09T15:58:09.313Z,19.5
2024-05-09T16:08:11.814Z,19.9
2024-05-09T16:18:13.764Z,19.5
2024-05-09T16:28:16.319Z,19.6
2024-05-09T16:38:18.948Z,19.4
2024-05-09T16:48:21.246Z,19
2024-05-09T17:08:25.639Z,18.9
2024-05-09T17:28:29.993Z,18.8
2024-05-09T17:48:33.588Z,18.7
2024-05-09T18:08:37.838Z,17.8
2024-05-09T18:18:39.796Z,17.6
2024-05-09T18:28:41.746Z,17.4
2024-05-09T18:48:46.595Z,16.8
2024-05-09T18:58:55.860Z,16.3
2024-05-09T19:08:58.110Z,16
2024-05-09T19:19:00.439Z,15.4
2024-05-09T19:29:02.588Z,15.2
2024-05-09T19:39:04.878Z,14.8
2024-05-09T19:49:07.337Z,14.4
2024-05-09T19:59:08.928Z,14.3
2024-05-09T20:09:10.731Z,14.3
2024-05-09T20:19:12.630Z,14.1
2024-05-09T20:29:14.772Z,13.9
2024-05-09T21:09:22.823Z,13.2
2024-05-09T22:09:36.853Z,11.8
2024-05-09T23:39:56.468Z,9.7
2024-05-09T23:49:58.386Z,9.6
